Time;durP1;ratioP1;P1;durP2;ratioP2;P2;SDS_P1;SDS_P2;PMS_P1;PMS_P2;Temp;Humidity;BMP_temperature;BMP_pressure;BME280_temperature;BME280_humidity;BME280_pressure;Samples;Min_cycle;Max_cycle;Signal;HPM_P1;HPM_P2
2021/07/12 00:00:39;;;;;;;15.00;8.17;;;;;;;21.73;73.09;100393.23;126295;1099;103982;-81
2021/07/12 00:03:25;;;;;;;15.83;8.47;;;;;;;21.72;73.83;100399.47;126301;1099;104172;-81
2021/07/12 00:05:56;;;;;;;16.43;8.87;;;;;;;21.73;73.73;100398.58;126284;1099;104245;-80
2021/07/12 00:08:27;;;;;;;15.67;8.63;;;;;;;21.73;73.28;100401.25;126361;1099;104168;-80
2021/07/12 00:10:57;;;;;;;15.47;8.50;;;;;;;21.73;73.94;100398.58;126323;1099;104303;-80
2021/07/12 00:13:28;;;;;;;14.50;8.47;;;;;;;21.71;74.09;100395.92;126284;1099;104188;-79
2021/07/12 00:15:59;;;;;;;13.27;8.10;;;;;;;21.70;73.42;100394.14;126368;1098;104248;-80
2021/07/12 00:18:30;;;;;;;18.03;9.40;;;;;;;21.69;73.88;100392.40;126320;1099;104169;-79
2021/07/12 00:21:00;;;;;;;17.60;9.20;;;;;;;21.68;74.13;100395.09;126365;1099;104159;-79
2021/07/12 00:23:31;;;;;;;14.50;7.87;;;;;;;21.66;73.73;100397.78;126343;1099;105505;-79
2021/07/12 00:26:03;;;;;;;16.67;8.20;;;;;;;21.64;74.28;100396.02;126319;1099;104168;-79
2021/07/12 00:28:34;;;;;;;15.97;9.03;;;;;;;21.60;74.53;100395.17;126361;1099;104171;-80
2021/07/12 00:31:05;;;;;;;15.43;8.13;;;;;;;21.60;74.07;100394.27;126339;1099;104144;-79
2021/07/12 00:33:37;;;;;;;17.30;8.97;;;;;;;21.61;74.28;100391.58;126290;1099;104159;-81
2021/07/12 00:36:08;;;;;;;17.10;9.53;;;;;;;21.61;74.52;100394.25;126312;1099;104451;-80
2021/07/12 00:38:40;;;;;;;16.70;8.80;;;;;;;21.62;74.43;100396.03;126346;1099;104166;-80
2021/07/12 00:41:10;;;;;;;15.60;9.03;;;;;;;21.64;74.83;100388.00;126329;1099;104259;-79
2021/07/12 00:43:41;;;;;;;15.30;9.00;;;;;;;21.63;74.32;100391.56;126336;1099;104152;-79
2021/07/12 00:46:12;;;;;;;16.97;9.40;;;;;;;21.64;74.50;100394.22;126345;1098;104592;-80
2021/07/12 00:48:44;;;;;;;17.73;9.30;;;;;;;21.70;74.65;100396.81;126372;1099;104142;-79
2021/07/12 00:51:15;;;;;;;17.73;9.10;;;;;;;21.75;74.44;100399.44;126314;1099;104194;-79
2021/07/12 00:53:46;;;;;;;17.53;9.10;;;;;;;21.78;74.36;100410.08;126329;1099;104143;-79
2021/07/12 00:56:21;;;;;;;17.63;9.37;;;;;;;21.83;75.02;100408.27;126352;1099;105135;-80
2021/07/12 00:58:53;;;;;;;18.25;8.80;;;;;;;21.86;74.76;100416.23;126354;1097;104245;-79
2021/07/12 01:01:23;;;;;;;18.65;8.85;;;;;;;21.89;74.94;100424.21;126386;1098;104231;-80
2021/07/12 01:03:54;;;;;;;16.63;8.90;;;;;;;21.92;74.57;100431.28;126289;1099;104326;-79
2021/07/12 01:06:26;;;;;;;18.23;9.03;;;;;;;21.93;74.54;100429.52;126320;1099;104217;-81
2021/07/12 01:08:59;;;;;;;12.95;8.23;;;;;;;21.95;74.81;100422.36;126348;1099;104131;-80
2021/07/12 01:11:38;;;;;;;16.23;8.77;;;;;;;21.96;75.23;100426.81;126313;1099;104216;-79
2021/07/12 01:14:22;;;;;;;18.47;9.00;;;;;;;22.00;74.77;100421.41;126305;1097;104184;-79
2021/07/12 01:17:16;;;;;;;18.40;9.20;;;;;;;22.00;74.75;100428.52;126319;1099;104147;-79
2021/07/12 01:20:08;;;;;;;15.53;8.67;;;;;;;22.01;74.91;100430.30;126332;1099;104278;-81
2021/07/12 01:22:52;;;;;;;16.07;8.93;;;;;;;22.02;74.98;100429.41;126312;1099;104166;-79
2021/07/12 01:25:35;;;;;;;;;;;;;;;22.01;74.17;100431.17;126388;1099;104188;-79
2021/07/12 01:28:33;;;;;;;16.80;8.93;;;;;;;22.04;74.77;100435.61;126350;1099;104185;-79
2021/07/12 01:31:26;;;;;;;17.83;9.00;;;;;;;22.06;74.52;100436.45;126319;1099;104418;-81
2021/07/12 01:34:03;;;;;;;17.13;9.20;;;;;;;22.05;74.76;100424.89;126338;1099;104146;-79
2021/07/12 01:36:38;;;;;;;19.60;8.93;;;;;;;22.08;75.05;100432.00;126301;1099;104631;-81
2021/07/12 01:39:13;;;;;;;18.80;9.40;;;;;;;22.12;74.67;100424.82;126341;1099;104146;-79
2021/07/12 01:41:52;;;;;;;16.47;8.83;;;;;;;22.18;75.02;100427.41;126329;1099;104242;-81
2021/07/12 01:44:33;;;;;;;15.20;8.97;;;;;;;22.21;74.90;100436.27;126238;1099;104692;-79
2021/07/12 01:47:09;;;;;;;17.67;8.73;;;;;;;22.21;74.44;100432.72;126349;1099;104293;-80
2021/07/12 01:49:48;;;;;;;16.77;9.00;;;;;;;22.21;74.45;100430.91;126299;1099;104281;-79
2021/07/12 01:52:29;;;;;;;14.90;8.93;;;;;;;22.22;75.08;100427.35;126325;1099;104172;-78
2021/07/12 01:55:03;;;;;;;16.67;9.00;;;;;;;22.23;75.03;100423.75;126236;1098;104203;-79
2021/07/12 01:57:43;;;;;;;17.00;8.83;;;;;;;22.26;75.42;100422.84;126309;1099;104338;-80
2021/07/12 02:00:15;;;;;;;14.33;8.67;;;;;;;22.31;75.38;100421.01;126360;1099;104172;-80
2021/07/12 02:03:04;;;;;;;15.80;9.17;;;;;;;22.35;74.68;100419.20;126339;1099;104204;-80
2021/07/12 02:05:41;;;;;;;19.07;9.77;;;;;;;22.36;75.12;100419.18;126301;1099;104152;-79
2021/07/12 02:08:20;;;;;;;18.37;9.70;;;;;;;22.35;74.94;100412.05;126363;1099;104220;-79
2021/07/12 02:10:55;;;;;;;17.43;9.90;;;;;;;22.34;75.00;100412.08;126327;1099;104157;-79
2021/07/12 02:13:30;;;;;;;19.35;9.65;;;;;;;22.33;74.66;100410.30;126304;1098;104147;-79
2021/07/12 02:16:07;;;;;;;21.03;10.10;;;;;;;22.26;74.92;100415.69;126329;1099;104198;-80
2021/07/12 02:18:42;;;;;;;19.47;9.50;;;;;;;22.22;74.62;100424.68;126381;1099;104117;-79
2021/07/12 02:21:32;;;;;;;16.37;9.13;;;;;;;22.16;75.03;100419.41;126354;1098;105212;-80
2021/07/12 02:24:04;;;;;;;18.23;9.50;;;;;;;22.11;74.99;100415.93;126305;1099;104405;-80
2021/07/12 02:26:36;;;;;;;15.57;9.30;;;;;;;22.11;75.20;100415.02;126361;1099;104265;-79
2021/07/12 02:29:09;;;;;;;17.37;9.60;;;;;;;22.07;75.46;100409.72;126286;1099;104213;-80
2021/07/12 02:31:44;;;;;;;17.27;9.50;;;;;;;22.06;74.77;100424.00;126387;1099;104216;-79
2021/07/12 02:34:14;;;;;;;17.40;9.13;;;;;;;22.03;74.88;100410.69;126292;1099;104188;-79
2021/07/12 02:36:48;;;;;;;17.80;9.73;;;;;;;22.04;75.45;100400.88;126258;1099;104191;-80
2021/07/12 02:39:33;;;;;;;18.20;10.03;;;;;;;22.06;75.30;100399.05;126319;1099;104143;-79
2021/07/12 02:42:08;;;;;;;14.83;9.07;;;;;;;22.05;75.35;100408.00;126355;1099;104146;-79
2021/07/12 02:44:41;;;;;;;18.50;10.00;;;;;;;21.99;74.73;100406.27;126308;1096;104131;-80
2021/07/12 02:47:14;;;;;;;17.07;9.77;;;;;;;21.94;74.67;100405.45;126324;1099;104287;-79
2021/07/12 02:49:46;;;;;;;16.90;9.20;;;;;;;21.96;75.68;100392.08;126344;1099;104197;-80
2021/07/12 02:52:22;;;;;;;15.20;8.50;;;;;;;21.96;75.34;100400.09;126317;1099;104178;-79
2021/07/12 02:54:59;;;;;;;16.33;9.13;;;;;;;21.93;75.65;100406.35;126284;1099;104158;-79
2021/07/12 02:57:30;;;;;;;16.90;8.47;;;;;;;21.94;75.47;100400.11;126371;1099;104600;-80
2021/07/12 03:00:04;;;;;;;15.27;8.60;;;;;;;21.95;75.78;100396.52;126357;1099;104136;-80
2021/07/12 03:02:36;;;;;;;16.03;8.60;;;;;;;21.90;75.14;100406.39;126318;1099;104309;-79
2021/07/12 03:05:11;;;;;;;15.90;8.27;;;;;;;21.85;75.47;100411.78;126245;1099;104709;-78
2021/07/12 03:07:47;;;;;;;13.50;7.70;;;;;;;21.82;75.11;100409.16;126362;1099;105287;-80
2021/07/12 03:10:27;;;;;;;16.90;7.60;;;;;;;21.77;74.98;100410.09;126305;1099;104627;-79
2021/07/12 03:13:00;;;;;;;15.70;8.10;;;;;;;21.71;74.59;100411.95;126345;1099;104239;-79
2021/07/12 03:15:37;;;;;;;14.73;7.67;;;;;;;21.64;75.11;100409.36;126245;1099;104169;-78
2021/07/12 03:18:19;;;;;;;16.93;9.30;;;;;;;21.47;74.95;100404.17;126341;1099;104124;-79
2021/07/12 03:20:54;;;;;;;16.00;8.50;;;;;;;21.36;75.86;100406.95;126296;1099;104216;-78
2021/07/12 03:23:28;;;;;;;16.57;8.67;;;;;;;21.26;75.23;100419.51;126366;1099;104133;-78
2021/07/12 03:26:00;;;;;;;;;;;;;;;21.18;76.00;100422.25;126346;1099;105492;-79
2021/07/12 03:28:31;;;;;;;17.20;9.23;;;;;;;21.15;75.71;100432.95;126246;1099;104319;-79
2021/07/12 03:31:03;;;;;;;;;;;;;;;21.14;76.53;100439.17;126296;1099;104160;-78
2021/07/12 03:33:36;;;;;;;19.15;9.85;;;;;;;21.16;76.29;100437.40;126288;1099;104242;-80
2021/07/12 03:36:06;;;;;;;;;;;;;;;21.20;76.56;100427.58;126303;1099;104168;-80
2021/07/12 03:38:39;;;;;;;18.07;10.37;;;;;;;21.29;76.51;100423.95;126331;1099;104162;-80
2021/07/12 03:41:12;;;;;;;20.25;10.05;;;;;;;21.38;76.74;100413.18;126345;1099;104310;-80
2021/07/12 03:43:44;;;;;;;19.23;9.93;;;;;;;21.46;75.90;100400.63;126311;1099;104169;-80
2021/07/12 03:46:17;;;;;;;22.30;10.70;;;;;;;21.54;76.54;100395.24;126273;1099;104201;-79
2021/07/12 03:48:49;;;;;;;17.25;10.15;;;;;;;21.59;76.86;100390.72;125544;1099;104224;-81
2021/07/12 03:51:27;;;;;;;18.43;9.90;;;;;;;21.62;76.75;100401.38;126244;1099;104136;-80
2021/07/12 03:54:01;;;;;;;19.07;10.13;;;;;;;21.67;76.99;100409.33;126289;1098;104143;-80
2021/07/12 03:56:32;;;;;;;16.67;9.73;;;;;;;21.68;77.01;100424.46;126332;1099;104201;-81
2021/07/12 03:59:03;;;;;;;18.93;10.43;;;;;;;21.67;77.24;100430.69;126324;1099;105153;-80
2021/07/12 04:01:34;;;;;;;16.80;10.15;;;;;;;21.67;76.85;100438.70;126240;1099;104265;-80
2021/07/12 04:04:05;;;;;;;16.93;10.03;;;;;;;21.65;77.18;100435.17;126278;1099;104239;-80
2021/07/12 04:06:39;;;;;;;15.73;9.47;;;;;;;21.63;76.83;100439.63;126263;1099;104156;-79
2021/07/12 04:09:11;;;;;;;17.23;9.90;;;;;;;21.60;77.04;100439.66;126368;1099;104140;-79
2021/07/12 04:11:42;;;;;;;17.47;10.30;;;;;;;21.57;77.22;100431.72;126243;1099;104296;-80
2021/07/12 04:14:13;;;;;;;19.97;10.57;;;;;;;21.61;76.92;100446.77;126316;1099;104195;-81
2021/07/12 04:16:43;;;;;;;13.70;7.83;;;;;;;21.57;76.78;100450.40;126280;1099;104149;-79
2021/07/12 04:19:14;;;;;;;13.00;8.10;;;;;;;21.56;76.71;100448.62;126284;1099;104216;-79
2021/07/12 04:21:45;;;;;;;18.90;9.70;;;;;;;21.59;76.16;100461.94;126369;1099;104248;-80
2021/07/12 04:24:15;;;;;;;16.67;10.23;;;;;;;21.52;76.78;100461.13;126322;1099;104159;-80
2021/07/12 04:26:46;;;;;;;16.80;10.03;;;;;;;21.47;76.79;100465.56;126213;1097;104274;-81
2021/07/12 04:29:16;;;;;;;15.60;10.00;;;;;;;21.43;77.50;100464.72;126339;1099;104146;-80
2021/07/12 04:31:48;;;;;;;19.77;10.17;;;;;;;21.47;76.61;100453.13;126321;1099;104179;-81
2021/07/12 04:34:19;;;;;;;21.23;10.67;;;;;;;21.49;77.33;100454.02;126347;1099;104281;-80
2021/07/12 04:36:50;;;;;;;17.37;9.00;;;;;;;21.49;76.45;100456.69;126263;1099;104294;-81
2021/07/12 04:39:21;;;;;;;15.83;8.27;;;;;;;21.48;77.01;100457.55;126338;1098;104360;-80
2021/07/12 04:41:53;;;;;;;13.03;6.90;;;;;;;21.41;75.71;100455.86;126273;1099;104248;-80
2021/07/12 04:44:24;;;;;;;10.30;6.80;;;;;;;21.37;76.57;100457.64;126268;1099;104188;-79
2021/07/12 04:46:57;;;;;;;9.60;6.77;;;;;;;21.35;75.97;100458.58;126248;1099;105470;-81
2021/07/12 04:49:28;;;;;;;12.80;7.45;;;;;;;21.35;76.32;100455.91;126241;1099;111312;-81
2021/07/12 04:51:59;;;;;;;13.43;7.83;;;;;;;21.37;75.81;100460.31;126283;1099;104191;-80
2021/07/12 04:54:32;;;;;;;14.30;8.10;;;;;;;21.36;75.54;100454.99;126297;1099;104608;-79
2021/07/12 04:57:05;;;;;;;13.43;7.77;;;;;;;21.27;76.50;100460.41;126237;1099;104216;-79
2021/07/12 04:59:38;;;;;;;15.17;8.33;;;;;;;21.18;75.75;100453.39;126308;1099;104207;-79
2021/07/12 05:02:10;;;;;;;16.23;7.72;;;;;;;21.08;75.39;100455.23;126349;1099;104219;-79
2021/07/12 05:04:41;;;;;;;17.20;8.27;;;;;;;21.00;76.59;100449.08;126252;1099;104237;-78
2021/07/12 05:07:13;;;;;;;17.60;8.60;;;;;;;20.98;75.89;100461.55;126271;1099;104133;-78
2021/07/12 05:09:44;;;;;;;15.90;8.83;;;;;;;20.96;76.88;100447.36;126241;1099;108496;-78
2021/07/12 05:12:16;;;;;;;16.17;8.40;;;;;;;20.93;76.03;100426.92;126330;1099;104236;-78
2021/07/12 05:14:47;;;;;;;16.10;8.10;;;;;;;20.91;76.07;100425.15;126306;1099;104238;-79
2021/07/12 05:17:18;;;;;;;15.63;8.87;;;;;;;20.88;77.00;100417.17;126314;1099;104139;-78
2021/07/12 05:19:49;;;;;;;15.20;8.37;;;;;;;20.84;76.41;100410.98;126220;1099;104185;-77
2021/07/12 05:22:22;;;;;;;13.10;8.00;;;;;;;20.80;76.32;100425.23;126299;1098;104637;-78
2021/07/12 05:24:53;;;;;;;16.43;8.67;;;;;;;20.83;77.06;100420.78;126298;1099;104202;-76
2021/07/12 05:27:26;;;;;;;13.78;7.90;;;;;;;20.94;76.40;100412.70;126331;1097;104713;-77
2021/07/12 05:29:57;;;;;;;15.20;7.77;;;;;;;21.09;76.61;100422.33;126238;1099;104198;-77
2021/07/12 05:32:30;;;;;;;11.37;7.73;;;;;;;21.23;77.04;100410.66;126290;1099;104159;-78
2021/07/12 05:35:01;;;;;;;13.60;7.60;;;;;;;21.43;77.03;100403.33;126267;1099;104223;-76
2021/07/12 05:37:32;;;;;;;13.13;7.43;;;;;;;21.61;77.03;100399.59;126204;1099;104178;-78
2021/07/12 05:40:03;;;;;;;14.03;7.23;;;;;;;21.75;76.97;100394.09;126078;1098;104312;-79
2021/07/12 05:42:35;;;;;;;11.13;7.03;;;;;;;21.89;76.82;100399.27;126217;1099;104201;-77
2021/07/12 05:45:08;;;;;;;12.43;7.43;;;;;;;22.05;76.16;100399.98;126162;1099;104260;-78
2021/07/12 05:47:41;;;;;;;15.37;7.87;;;;;;;22.17;76.54;100394.44;126200;1099;103982;-78
2021/07/12 05:50:14;;;;;;;14.43;8.27;;;;;;;22.30;76.20;100378.23;126035;1099;104178;-77
2021/07/12 05:52:44;;;;;;;14.57;7.27;;;;;;;22.38;76.33;100379.94;126138;1099;104596;-77
2021/07/12 05:55:23;;;;;;;13.07;7.00;;;;;;;22.44;76.26;100382.52;126141;1099;104187;-80
2021/07/12 05:57:58;;;;;;;12.97;7.70;;;;;;;22.50;76.33;100380.64;126183;1099;104169;-78
2021/07/12 06:00:31;;;;;;;13.87;7.90;;;;;;;22.52;75.69;100381.53;126156;1099;104390;-77
2021/07/12 06:03:04;;;;;;;14.07;8.03;;;;;;;22.50;76.00;100386.90;126162;1099;104140;-76
2021/07/12 06:05:36;;;;;;;13.53;7.60;;;;;;;22.47;75.48;100397.64;126065;1099;104194;-77
2021/07/12 06:08:14;;;;;;;13.40;7.43;;;;;;;22.49;75.74;100390.47;126096;1099;104150;-78
2021/07/12 06:10:47;;;;;;;13.07;7.90;;;;;;;22.53;75.33;100392.20;126157;1099;104152;-78
2021/07/12 06:13:24;;;;;;;14.13;7.60;;;;;;;22.60;75.49;100393.84;126062;1099;104322;-77
2021/07/12 06:15:57;;;;;;;14.50;7.90;;;;;;;22.67;75.66;100388.41;126125;1099;104332;-78
2021/07/12 06:18:30;;;;;;;16.23;8.27;;;;;;;22.76;75.93;100391.80;125995;1099;104152;-79
2021/07/12 06:21:07;;;;;;;15.93;8.53;;;;;;;22.88;75.60;100395.21;125929;1099;104242;-77
2021/07/12 06:23:40;;;;;;;15.53;7.97;;;;;;;23.03;75.55;100396.72;125914;1099;104315;-76
2021/07/12 06:26:13;;;;;;;16.53;8.93;;;;;;;23.21;75.25;100408.95;125344;1099;104175;-78
2021/07/12 06:28:48;;;;;;;16.20;8.90;;;;;;;23.40;75.47;100393.42;125368;1099;104507;-78
2021/07/12 06:31:22;;;;;;;16.83;8.53;;;;;;;23.62;75.26;100396.56;125162;1102;111952;-77
2021/07/12 06:33:58;;;;;;;14.73;8.33;;;;;;;23.77;75.27;100395.38;125226;1099;104256;-79
2021/07/12 06:36:34;;;;;;;12.67;7.77;;;;;;;23.92;75.09;100395.09;125190;1102;104168;-78
2021/07/12 06:39:19;;;;;;;16.67;8.20;;;;;;;24.07;74.80;100401.04;125216;1099;104153;-78
2021/07/12 06:41:53;;;;;;;16.37;8.67;;;;;;;24.15;74.12;100399.97;126000;1099;104216;-76
2021/07/12 06:44:28;;;;;;;16.27;8.60;;;;;;;24.27;74.36;100405.97;125999;1099;104287;-77
2021/07/12 06:47:02;;;;;;;18.13;8.93;;;;;;;24.26;74.00;100407.73;125371;1099;104358;-77
2021/07/12 06:49:33;;;;;;;16.37;8.43;;;;;;;24.28;73.97;100408.61;125193;1099;104207;-76
2021/07/12 06:52:06;;;;;;;16.37;8.17;;;;;;;24.32;73.90;100407.60;125187;1099;106520;-77
2021/07/12 06:54:40;;;;;;;15.27;8.47;;;;;;;24.33;73.59;100420.10;125257;1102;104222;-78
2021/07/12 06:57:11;;;;;;;13.57;7.80;;;;;;;24.31;73.70;100411.22;126164;1099;104191;-75
2021/07/12 06:59:44;;;;;;;13.57;8.27;;;;;;;24.26;73.25;100420.27;126140;1099;104163;-77
2021/07/12 07:02:16;;;;;;;14.87;8.63;;;;;;;24.25;73.41;100426.54;126077;1099;104361;-77
2021/07/12 07:04:47;;;;;;;;;;;;;;;24.21;73.06;100428.41;126186;1099;104156;-79
2021/07/12 07:07:18;;;;;;;17.90;8.97;;;;;;;24.21;73.22;100423.05;125985;1099;104283;-77
2021/07/12 07:09:54;;;;;;;18.03;9.87;;;;;;;24.29;73.60;100421.08;126241;1097;104194;-77
2021/07/12 07:12:30;;;;;;;19.37;9.83;;;;;;;24.40;73.63;100426.20;126106;1099;104251;-78
2021/07/12 07:15:03;;;;;;;19.37;9.50;;;;;;;24.56;73.77;100421.39;126167;1099;104137;-77
2021/07/12 07:17:35;;;;;;;16.80;8.65;;;;;;;24.70;73.77;100421.97;126147;1099;104137;-78
2021/07/12 07:20:11;;;;;;;19.67;8.60;;;;;;;24.81;72.87;100419.03;126037;1099;104156;-77
2021/07/12 07:22:44;;;;;;;16.17;8.67;;;;;;;24.96;73.32;100423.12;126175;1099;112012;-78
2021/07/12 07:25:18;;;;;;;17.67;9.23;;;;;;;25.12;72.97;100432.56;126230;1099;104242;-77
2021/07/12 07:27:59;;;;;;;17.07;9.27;;;;;;;25.30;72.76;100430.34;126171;1099;104261;-79
2021/07/12 07:30:32;;;;;;;14.77;7.87;;;;;;;25.46;73.05;100418.28;126065;1099;104130;-78
2021/07/12 07:33:06;;;;;;;14.00;8.20;;;;;;;25.50;72.19;100413.70;126193;1099;104222;-79
2021/07/12 07:35:41;;;;;;;18.80;8.10;;;;;;;25.61;71.63;100426.84;126266;1099;104140;-79
2021/07/12 07:38:13;;;;;;;14.13;7.80;;;;;;;25.79;71.37;100423.63;126140;1099;104290;-80
2021/07/12 07:40:49;;;;;;;15.63;8.07;;;;;;;25.95;70.96;100417.81;126090;1099;104203;-81
2021/07/12 07:43:23;;;;;;;11.87;6.63;;;;;;;26.08;70.09;100421.05;126143;1099;109085;-79
2021/07/12 07:45:58;;;;;;;12.87;6.40;;;;;;;26.20;69.43;100420.68;126225;1099;104217;-80
2021/07/12 07:48:32;;;;;;;16.37;6.63;;;;;;;26.33;69.49;100415.80;126184;1099;104153;-79
2021/07/12 07:51:05;;;;;;;14.75;6.60;;;;;;;26.47;68.91;100421.62;126129;1099;104210;-76
2021/07/12 07:53:39;;;;;;;12.67;6.33;;;;;;;26.62;68.17;100425.64;126344;1099;118117;-78
2021/07/12 07:56:13;;;;;;;11.27;6.40;;;;;;;26.79;67.36;100430.52;126257;1099;104167;-80
2021/07/12 07:58:47;;;;;;;14.43;6.63;;;;;;;26.89;66.25;100421.19;126279;1099;104140;-78
2021/07/12 08:01:20;;;;;;;12.63;6.47;;;;;;;26.98;64.97;100424.53;126196;1099;104140;-76
2021/07/12 08:03:53;;;;;;;13.50;6.57;;;;;;;27.02;64.86;100423.47;126122;1099;104166;-78
2021/07/12 08:06:25;;;;;;;9.70;6.33;;;;;;;27.10;64.71;100421.42;126293;1096;104252;-76
2021/07/12 08:08:57;;;;;;;13.80;6.30;;;;;;;27.16;63.70;100417.62;126210;1099;104217;-79
2021/07/12 08:11:30;;;;;;;13.00;6.37;;;;;;;27.12;63.70;100424.94;126279;1099;104306;-80
2021/07/12 08:14:02;;;;;;;11.50;6.20;;;;;;;27.18;63.39;100422.03;126273;1099;104217;-77
2021/07/12 08:16:34;;;;;;;11.43;6.37;;;;;;;27.29;62.51;100424.36;126290;1099;104152;-77
2021/07/12 08:19:05;;;;;;;15.73;6.50;;;;;;;27.43;61.99;100413.13;126221;1099;104217;-77
2021/07/12 08:21:44;;;;;;;11.03;6.17;;;;;;;27.60;60.82;100412.52;126073;1099;104111;-77
2021/07/12 08:24:17;;;;;;;10.53;6.10;;;;;;;27.82;60.86;100409.91;126217;1099;104179;-76
2021/07/12 08:26:49;;;;;;;8.60;5.90;;;;;;;28.10;59.96;100408.90;126128;1099;104297;-76
2021/07/12 08:29:24;;;;;;;11.00;5.90;;;;;;;28.08;60.00;100414.34;126087;1099;105316;-77
2021/07/12 08:31:55;;;;;;;11.20;6.47;;;;;;;28.15;59.23;100404.20;126252;1099;104166;-79
2021/07/12 08:34:32;;;;;;;11.80;6.30;;;;;;;28.23;58.76;100418.25;126162;1099;105335;-77
2021/07/12 08:37:05;;;;;;;11.33;6.57;;;;;;;28.26;58.82;100419.96;126175;1099;104224;-77
2021/07/12 08:39:39;;;;;;;12.33;7.00;;;;;;;28.30;58.74;100417.09;126120;1099;104290;-78
2021/07/12 08:42:19;;;;;;;10.07;6.60;;;;;;;28.36;57.92;100406.98;126241;1099;104185;-78
2021/07/12 08:44:51;;;;;;;12.13;6.30;;;;;;;28.38;58.55;100413.22;126289;1099;118918;-76
2021/07/12 08:47:26;;;;;;;11.37;6.97;;;;;;;28.39;58.21;100413.16;126080;1098;104143;-77
2021/07/12 08:50:00;;;;;;;12.37;6.90;;;;;;;28.50;57.62;100400.10;126047;1099;104382;-79
2021/07/12 08:52:33;;;;;;;14.58;7.00;;;;;;;28.62;57.32;100404.14;126205;1099;104370;-77
2021/07/12 08:55:08;;;;;;;14.53;6.97;;;;;;;28.77;57.26;100405.34;126264;1099;104257;-77
2021/07/12 08:57:56;;;;;;;13.30;6.73;;;;;;;28.87;57.33;100400.42;126131;1099;104223;-77
2021/07/12 09:00:41;;;;;;;13.40;7.23;;;;;;;29.02;57.24;100396.20;126218;1099;104277;-80
2021/07/12 09:03:27;;;;;;;12.53;7.00;;;;;;;29.16;56.75;100395.62;126261;1097;104181;-77
2021/07/12 09:06:07;;;;;;;13.27;6.87;;;;;;;29.25;56.34;100392.55;126255;1099;104238;-78
2021/07/12 09:08:47;;;;;;;13.30;6.37;;;;;;;29.31;55.85;100402.19;126220;1099;104201;-81
2021/07/12 09:11:26;;;;;;;10.83;6.47;;;;;;;29.35;55.31;100393.88;126186;1097;104178;-77
2021/07/12 09:14:05;;;;;;;13.33;6.40;;;;;;;29.33;54.87;100398.48;125351;1099;104341;-80
2021/07/12 09:16:46;;;;;;;8.80;5.60;;;;;;;29.28;53.65;100403.22;126199;1099;104213;-78
2021/07/12 09:19:23;;;;;;;9.50;5.53;;;;;;;29.35;54.22;100396.58;126150;1097;104242;-79
2021/07/12 09:22:05;;;;;;;13.80;5.90;;;;;;;29.26;53.05;100401.52;126224;1099;104128;-78
2021/07/12 09:24:42;;;;;;;10.10;6.30;;;;;;;29.24;52.41;100401.59;126190;1099;105469;-77
2021/07/12 09:27:18;;;;;;;12.13;6.33;;;;;;;29.34;52.80;100388.55;126079;1099;102242;-79
2021/07/12 09:29:51;;;;;;;9.80;6.20;;;;;;;29.51;53.15;100391.37;126208;1099;104281;-80
2021/07/12 09:32:26;;;;;;;10.10;6.23;;;;;;;29.64;52.43;100391.71;126302;1099;104213;-80
2021/07/12 09:35:02;;;;;;;12.53;6.10;;;;;;;29.76;52.37;100395.66;126250;1099;104225;-79
2021/07/12 09:37:40;;;;;;;10.83;5.83;;;;;;;29.87;52.07;100403.31;126231;1099;104143;-78
2021/07/12 09:40:17;;;;;;;11.23;6.40;;;;;;;30.00;51.82;100398.23;126273;1098;104137;-79
2021/07/12 09:42:54;;;;;;;12.60;6.17;;;;;;;30.02;51.03;100393.63;126159;1099;104169;-76
2021/07/12 09:45:30;;;;;;;10.83;6.00;;;;;;;30.06;50.33;100389.80;126196;1099;104293;-78
2021/07/12 09:48:08;;;;;;;11.43;5.73;;;;;;;30.18;49.00;100391.06;126090;1099;104297;-78
2021/07/12 09:50:50;;;;;;;8.53;5.73;;;;;;;30.26;49.86;100391.56;125568;1099;104213;-80
2021/07/12 09:53:34;;;;;;;9.27;5.63;;;;;;;30.26;49.23;100392.45;126262;1099;104666;-78
2021/07/12 09:56:29;;;;;;;7.87;5.70;;;;;;;30.22;48.27;100384.56;126315;1099;104140;-80
2021/07/12 09:59:12;;;;;;;12.27;6.33;;;;;;;30.23;48.58;100392.61;126025;1099;104239;-77
2021/07/12 10:01:48;;;;;;;8.10;5.50;;;;;;;30.32;48.44;100383.14;126127;1097;104159;-77
2021/07/12 10:04:20;;;;;;;10.07;5.87;;;;;;;30.42;47.75;100384.50;126000;1099;104226;-77
2021/07/12 10:06:53;;;;;;;12.27;5.90;;;;;;;30.45;47.48;100384.35;126237;1099;104149;-77
2021/07/12 10:09:26;;;;;;;10.40;6.10;;;;;;;30.52;47.36;100381.34;126157;1099;104194;-77
2021/07/12 10:11:59;;;;;;;9.80;6.08;;;;;;;30.55;46.54;100382.06;125133;1102;104207;-77
2021/07/12 10:14:35;;;;;;;8.15;5.85;;;;;;;30.52;46.01;100371.38;125022;1099;104370;-78
2021/07/12 10:17:09;;;;;;;7.73;5.97;;;;;;;30.44;46.06;100363.64;125141;1099;104303;-79
2021/07/12 10:19:45;;;;;;;9.97;6.00;;;;;;;30.47;45.38;100373.45;125890;1099;104606;-77
2021/07/12 10:22:17;;;;;;;8.70;6.10;;;;;;;30.52;45.94;100360.55;125844;1099;104319;-77
2021/07/12 10:24:48;;;;;;;12.07;5.80;;;;;;;30.55;45.44;100360.40;125039;1099;104197;-78
2021/07/12 10:27:25;;;;;;;10.57;5.97;;;;;;;30.58;45.25;100356.67;125118;1102;104341;-80
2021/07/12 10:29:57;;;;;;;8.17;5.80;;;;;;;30.59;45.04;100355.70;125301;1099;104408;-80
2021/07/12 10:32:33;;;;;;;8.83;5.72;;;;;;;30.64;44.95;100351.81;125189;1102;104239;-78
2021/07/12 10:35:04;;;;;;;7.70;5.47;;;;;;;30.64;44.46;100351.81;125190;1102;104195;-78
2021/07/12 10:37:44;;;;;;;8.85;5.60;;;;;;;30.62;44.01;100344.71;126123;1099;104293;-78
2021/07/12 10:40:22;;;;;;;12.37;6.17;;;;;;;30.61;44.44;100349.27;126044;1099;104222;-79
2021/07/12 10:43:02;;;;;;;9.93;5.80;;;;;;;30.68;44.30;100341.70;126045;1099;104660;-78
2021/07/12 10:45:41;;;;;;;12.13;5.70;;;;;;;30.73;43.72;100347.78;126123;1099;104341;-78
2021/07/12 10:48:15;;;;;;;8.07;5.27;;;;;;;30.73;43.02;100346.88;126109;1099;104179;-77
2021/07/12 10:50:51;;;;;;;8.73;5.47;;;;;;;30.76;43.17;100347.62;126242;1099;104265;-78
2021/07/12 10:53:40;;;;;;;9.73;6.00;;;;;;;30.79;43.18;100339.34;126243;1098;104146;-78
2021/07/12 10:56:21;;;;;;;10.03;5.83;;;;;;;30.85;42.79;100335.42;126093;1099;104192;-77
2021/07/12 10:59:02;;;;;;;8.83;5.33;;;;;;;30.93;42.61;100343.16;126106;1099;104242;-78
2021/07/12 11:01:45;;;;;;;9.67;5.50;;;;;;;30.95;42.73;100330.42;126288;1099;104146;-78
2021/07/12 11:04:51;;;;;;;;;;;;;;;;;;;;;
2021/07/12 11:07:45;;;;;;;9.10;5.37;;;;;;;30.90;41.50;100333.38;126159;1098;104213;-78
2021/07/12 11:10:25;;;;;;;9.87;5.13;;;;;;;30.90;41.49;100336.08;126093;1099;104251;-78
2021/07/12 11:13:01;;;;;;;7.17;4.80;;;;;;;30.89;40.83;100322.62;126084;1099;104358;-77
2021/07/12 11:15:37;;;;;;;9.23;5.30;;;;;;;30.95;41.22;100325.88;126267;1099;104134;-75
2021/07/12 11:18:12;;;;;;;10.13;5.20;;;;;;;31.01;40.70;100322.02;126200;1099;111797;-75
2021/07/12 11:21:05;;;;;;;6.87;5.13;;;;;;;31.05;40.95;100318.16;126241;1099;104130;-75
2021/07/12 11:23:53;;;;;;;9.77;6.13;;;;;;;31.15;40.97;100321.25;126250;1099;104172;-75
2021/07/12 11:26:40;;;;;;;7.43;5.00;;;;;;;31.15;39.29;100315.84;126197;1098;104296;-75
2021/07/12 11:29:37;;;;;;;7.50;5.30;;;;;;;31.13;39.11;100315.91;126239;1099;104609;-75
2021/07/12 11:32:16;;;;;;;10.53;5.33;;;;;;;31.16;39.09;100314.89;126263;1099;104181;-77
2021/07/12 11:34:52;;;;;;;6.43;5.00;;;;;;;31.16;38.38;100315.75;126262;1099;104319;-76
2021/07/12 11:37:29;;;;;;;8.37;5.40;;;;;;;31.24;38.97;100311.77;126103;1099;104268;-76
2021/07/12 11:40:04;;;;;;;8.57;4.70;;;;;;;31.23;38.48;100316.33;125481;1099;104207;-76